Time;durP1;ratioP1;P1;durP2;ratioP2;P2;SDS_P1;SDS_P2;PMS_P1;PMS_P2;Temp;Humidity;BMP_temperature;BMP_pressure;BME280_temperature;BME280_humidity;BME280_pressure;Samples;Min_cycle;Max_cycle;Signal;HPM_P1;HPM_P2
2022/11/09 00:03:26;;;;;;;2.03;0.63;;;;;;;11.02;100.00;97903.09;15278796;19;20019;-54
2022/11/09 00:08:59;;;;;;;1.50;0.70;;;;;;;11.01;100.00;97896.00;15273366;19;20027;-51
2022/11/09 00:14:28;;;;;;;1.25;0.70;;;;;;;10.98;100.00;97890.13;15279936;19;20025;-57
2022/11/09 00:19:53;;;;;;;4.40;0.90;;;;;;;10.94;100.00;97890.50;15269617;19;20025;-54
2022/11/09 00:25:18;;;;;;;1.40;0.85;;;;;;;10.96;100.00;97893.03;15275944;19;20021;-53
2022/11/09 00:30:46;;;;;;;0.77;0.77;;;;;;;11.02;100.00;97897.69;15277167;19;20011;-58
2022/11/09 00:36:13;;;;;;;1.05;0.80;;;;;;;11.06;100.00;97893.63;15273802;19;20020;-50
2022/11/09 00:41:38;;;;;;;2.00;0.85;;;;;;;11.09;100.00;97887.91;15273420;19;20006;-52
2022/11/09 00:47:05;;;;;;;4.18;0.80;;;;;;;11.18;100.00;97883.28;15272918;19;20010;-52
2022/11/09 00:52:30;;;;;;;0.93;0.80;;;;;;;11.34;100.00;97882.34;15272237;19;20042;-53
2022/11/09 00:57:55;;;;;;;1.63;0.70;;;;;;;11.46;100.00;97876.53;15270115;19;20017;-50
2022/11/09 01:03:22;;;;;;;1.60;0.90;;;;;;;11.47;100.00;97886.28;15267099;19;20353;-55
2022/11/09 01:08:47;;;;;;;0.98;0.85;;;;;;;11.49;100.00;97886.94;15267958;19;20018;-58
2022/11/09 01:14:12;;;;;;;0.65;0.65;;;;;;;11.48;100.00;97880.72;15272704;19;20021;-55
2022/11/09 01:19:39;;;;;;;1.33;0.70;;;;;;;11.52;100.00;97875.78;15269202;19;20041;-59
2022/11/09 01:25:06;;;;;;;1.02;0.80;;;;;;;11.54;100.00;97888.06;15265225;19;20023;-55
2022/11/09 01:30:31;;;;;;;1.35;0.77;;;;;;;11.52;100.00;97873.09;15271659;19;20094;-59
2022/11/09 01:35:59;;;;;;;2.47;0.70;;;;;;;11.54;100.00;97871.06;15267561;19;20014;-51
2022/11/09 01:41:25;;;;;;;1.40;0.90;;;;;;;11.52;100.00;97871.25;15269706;19;20018;-49
2022/11/09 01:46:56;;;;;;;1.45;0.70;;;;;;;11.54;100.00;97868.38;15268681;19;20025;-54
2022/11/09 01:52:27;;;;;;;1.65;0.75;;;;;;;11.56;100.00;97867.16;15272462;19;20022;-55
2022/11/09 01:57:55;;;;;;;0.85;0.70;;;;;;;11.61;100.00;97874.69;15259383;19;20018;-58
2022/11/09 02:03:24;;;;;;;1.23;0.90;;;;;;;11.70;100.00;97879.00;15267865;19;20369;-49
2022/11/09 02:09:02;;;;;;;1.88;0.85;;;;;;;11.64;100.00;97871.66;15263588;19;20368;-51
2022/11/09 02:14:29;;;;;;;2.13;0.80;;;;;;;11.61;100.00;97863.91;15270655;19;20090;-55
2022/11/09 02:19:54;;;;;;;1.45;0.90;;;;;;;11.54;100.00;97853.00;15264710;19;20754;-55
2022/11/09 02:25:21;;;;;;;1.00;0.80;;;;;;;11.51;100.00;97831.81;15263220;19;20010;-61
2022/11/09 02:30:47;;;;;;;1.10;1.00;;;;;;;11.44;100.00;97838.94;15256937;19;20016;-61
2022/11/09 02:36:11;;;;;;;0.80;0.70;;;;;;;11.37;100.00;97830.72;15266823;19;20014;-61
2022/11/09 02:41:40;;;;;;;1.15;0.75;;;;;;;11.39;100.00;97826.00;15266929;19;20039;-61
2022/11/09 02:47:04;;;;;;;1.75;0.80;;;;;;;11.38;100.00;97837.78;15266442;19;20038;-61
2022/11/09 02:52:31;;;;;;;1.50;0.80;;;;;;;11.39;100.00;97838.66;15285610;19;20017;-62
2022/11/09 02:57:58;;;;;;;1.20;0.80;;;;;;;11.34;100.00;97831.09;15277205;19;20029;-61
2022/11/09 03:03:24;;;;;;;0.88;0.70;;;;;;;11.30;100.00;97824.38;15273461;19;20722;-61
2022/11/09 03:08:48;;;;;;;1.15;0.80;;;;;;;11.29;100.00;97825.41;15277038;19;20021;-61
2022/11/09 03:14:17;;;;;;;1.35;0.70;;;;;;;11.33;100.00;97831.28;15283123;19;20019;-61
2022/11/09 03:19:41;;;;;;;2.45;0.80;;;;;;;11.38;100.00;97843.19;15280837;19;20022;-62
2022/11/09 03:25:08;;;;;;;1.35;0.70;;;;;;;11.33;100.00;97853.69;15276288;19;20019;-60
2022/11/09 03:30:35;;;;;;;1.05;0.75;;;;;;;11.43;100.00;97856.13;15273172;19;20026;-60
2022/11/09 03:36:01;;;;;;;2.45;0.90;;;;;;;11.51;100.00;97849.84;15267736;19;20019;-62
2022/11/09 03:41:25;;;;;;;1.08;0.70;;;;;;;11.65;100.00;97861.69;15273966;19;20014;-61
2022/11/09 03:46:55;;;;;;;1.55;0.90;;;;;;;11.76;100.00;97857.72;15273924;19;20428;-62
2022/11/09 03:52:19;;;;;;;1.55;0.90;;;;;;;11.77;100.00;97875.59;15276882;19;20029;-62
2022/11/09 03:57:44;;;;;;;1.25;0.80;;;;;;;11.71;100.00;97877.97;15273210;19;20018;-60
2022/11/09 04:03:11;;;;;;;1.10;0.90;;;;;;;11.56;100.00;97877.94;15270199;19;20034;-59
2022/11/09 04:08:30;;;;;;;1.60;1.05;;;;;;;11.51;100.00;97879.50;15264731;19;20754;-61
2022/11/09 04:13:54;;;;;;;1.35;0.80;;;;;;;11.37;100.00;97878.44;15280083;19;20699;-60
2022/11/09 04:19:22;;;;;;;0.75;0.75;;;;;;;11.21;100.00;97887.50;15279588;19;20554;-61
2022/11/09 04:24:47;;;;;;;2.33;0.90;;;;;;;11.12;100.00;97892.09;15275749;19;20032;-61
2022/11/09 04:30:12;;;;;;;3.53;0.90;;;;;;;11.09;100.00;97896.00;15276025;19;20018;-61
2022/11/09 04:35:42;;;;;;;2.60;1.15;;;;;;;11.06;100.00;97904.41;15273777;19;20054;-60
2022/11/09 04:41:08;;;;;;;1.52;0.90;;;;;;;10.97;100.00;97908.19;15267947;19;20483;-61
2022/11/09 04:46:33;;;;;;;1.67;1.00;;;;;;;10.89;100.00;97900.13;15273176;19;20045;-61
2022/11/09 04:52:00;;;;;;;1.42;0.98;;;;;;;10.80;100.00;97910.13;15276672;19;20047;-60
2022/11/09 04:57:25;;;;;;;1.83;1.13;;;;;;;10.78;100.00;97907.59;15273176;19;20026;-61
2022/11/09 05:02:49;;;;;;;1.55;1.00;;;;;;;10.71;100.00;97920.09;15272629;19;20553;-60
2022/11/09 05:08:17;;;;;;;2.35;1.08;;;;;;;10.65;100.00;97923.47;15269941;19;20022;-61
2022/11/09 05:13:41;;;;;;;2.05;1.00;;;;;;;10.64;100.00;97911.84;15268893;19;20027;-61
2022/11/09 05:19:07;;;;;;;1.20;1.10;;;;;;;10.63;100.00;97933.59;15270788;19;20021;-59
2022/11/09 05:24:34;;;;;;;1.42;1.15;;;;;;;10.59;100.00;97933.06;15271291;19;20032;-61
2022/11/09 05:30:06;;;;;;;1.83;1.10;;;;;;;10.55;100.00;97926.38;15272436;19;20474;-60
2022/11/09 05:35:30;;;;;;;1.30;1.20;;;;;;;10.55;100.00;97925.50;15270286;19;20029;-61
2022/11/09 05:40:59;;;;;;;1.38;1.20;;;;;;;10.54;100.00;97910.38;15263832;19;20320;-62
2022/11/09 05:46:24;;;;;;;1.20;1.05;;;;;;;10.52;100.00;97913.25;15257477;19;20028;-61
2022/11/09 05:51:49;;;;;;;1.48;1.10;;;;;;;10.55;100.00;97909.34;15269162;19;20018;-61
2022/11/09 05:57:16;;;;;;;1.67;1.10;;;;;;;10.56;100.00;97905.66;15269839;19;20517;-60
2022/11/09 06:02:40;;;;;;;3.78;1.30;;;;;;;10.55;100.00;97912.06;15271048;19;20011;-60
2022/11/09 06:08:05;;;;;;;2.05;1.20;;;;;;;10.54;100.00;97899.59;15267652;19;20015;-60
2022/11/09 06:13:33;;;;;;;2.20;1.10;;;;;;;10.52;100.00;97893.56;15270803;19;20023;-59
2022/11/09 06:18:57;;;;;;;3.80;1.10;;;;;;;10.50;100.00;97891.03;15260279;19;20479;-61
2022/11/09 06:24:23;;;;;;;1.88;1.00;;;;;;;10.47;100.00;97888.69;15265832;19;20018;-60
2022/11/09 06:29:57;;;;;;;3.17;1.20;;;;;;;10.46;100.00;97887.84;15267148;19;20429;-59
2022/11/09 06:35:21;;;;;;;2.45;1.15;;;;;;;10.47;100.00;97883.28;15268306;19;21411;-60
2022/11/09 06:40:46;;;;;;;1.30;0.90;;;;;;;10.45;100.00;97875.41;15268702;19;20026;-61
2022/11/09 06:46:16;;;;;;;1.63;1.00;;;;;;;10.43;100.00;97914.28;15266023;19;20341;-59
2022/11/09 06:51:40;;;;;;;1.48;1.00;;;;;;;10.41;100.00;97932.47;15263216;19;20025;-59
2022/11/09 06:57:05;;;;;;;2.75;1.10;;;;;;;10.39;100.00;97940.72;15266173;19;20047;-60
2022/11/09 07:02:32;;;;;;;1.00;0.90;;;;;;;10.37;100.00;97953.50;15265784;19;20023;-60
2022/11/09 07:07:57;;;;;;;1.20;1.00;;;;;;;10.38;100.00;97960.59;15262704;19;20014;-60
2022/11/09 07:13:22;;;;;;;1.33;1.10;;;;;;;10.35;100.00;97954.69;15268063;19;20772;-59
2022/11/09 07:18:49;;;;;;;1.17;1.05;;;;;;;10.38;100.00;97965.97;15259996;19;20029;-55
2022/11/09 07:24:15;;;;;;;1.63;1.10;;;;;;;10.37;100.00;97971.47;15259302;19;20090;-57
2022/11/09 07:29:40;;;;;;;2.10;1.00;;;;;;;10.38;100.00;97959.72;15261653;19;20015;-59
2022/11/09 07:35:07;;;;;;;1.58;1.30;;;;;;;10.39;100.00;97961.41;15269941;19;20055;-59
2022/11/09 07:40:33;;;;;;;3.58;1.20;;;;;;;10.42;100.00;97961.91;15281555;19;20018;-60
2022/11/09 07:45:57;;;;;;;1.58;1.13;;;;;;;10.46;100.00;97965.13;15277967;19;20029;-59
2022/11/09 07:51:24;;;;;;;1.80;1.10;;;;;;;10.51;100.00;97970.00;15280824;19;20034;-59
2022/11/09 07:56:49;;;;;;;1.83;1.10;;;;;;;10.52;100.00;97971.69;15275490;19;20536;-57
2022/11/09 08:02:13;;;;;;;1.52;1.00;;;;;;;10.55;100.00;97966.78;15281574;19;20022;-60
2022/11/09 08:07:41;;;;;;;0.90;0.90;;;;;;;10.57;100.00;97978.22;15278550;19;20022;-61
2022/11/09 08:13:08;;;;;;;2.55;1.02;;;;;;;10.65;100.00;97982.72;15282578;19;20105;-61
2022/11/09 08:18:32;;;;;;;1.45;1.00;;;;;;;10.71;100.00;98000.91;15272517;19;20006;-60
2022/11/09 08:24:00;;;;;;;1.67;1.17;;;;;;;10.81;100.00;97989.09;15276401;19;20029;-61
2022/11/09 08:29:31;;;;;;;1.33;1.20;;;;;;;10.88;100.00;97976.59;15270346;19;20010;-57
2022/11/09 08:34:55;;;;;;;2.00;1.20;;;;;;;10.92;100.00;97983.31;15276154;19;20376;-58
2022/11/09 08:40:26;;;;;;;1.08;1.00;;;;;;;10.98;100.00;97993.41;15276578;19;20046;-59
2022/11/09 08:45:50;;;;;;;1.73;1.10;;;;;;;11.09;100.00;97990.34;15271557;19;20022;-61
2022/11/09 08:51:15;;;;;;;2.42;1.40;;;;;;;11.18;100.00;97995.69;15276165;19;20018;-61
2022/11/09 08:56:42;;;;;;;1.95;1.00;;;;;;;11.29;100.00;97989.06;15270428;19;20018;-60
2022/11/09 09:02:07;;;;;;;3.25;1.10;;;;;;;11.34;100.00;97975.88;15275378;19;20021;-60
2022/11/09 09:07:32;;;;;;;1.08;0.90;;;;;;;11.41;100.00;97976.84;15271288;19;20028;-58
2022/11/09 09:12:59;;;;;;;0.60;0.60;;;;;;;11.46;100.00;97968.25;15275163;19;20022;-59
2022/11/09 09:18:30;;;;;;;1.58;0.50;;;;;;;11.54;100.00;97960.91;15270906;19;20019;-60
2022/11/09 09:23:55;;;;;;;1.80;0.70;;;;;;;11.67;100.00;97948.69;15273115;19;20025;-61
2022/11/09 09:29:30;;;;;;;0.50;0.50;;;;;;;11.77;100.00;97948.44;15263173;19;20015;-59
2022/11/09 09:34:55;;;;;;;1.30;0.77;;;;;;;11.86;100.00;97947.34;15272184;19;20371;-60
2022/11/09 09:40:31;;;;;;;0.75;0.40;;;;;;;11.98;100.00;97943.25;15270306;19;20014;-59
2022/11/09 09:46:01;;;;;;;0.77;0.50;;;;;;;12.12;100.00;97924.56;15267335;19;20018;-60
2022/11/09 09:51:29;;;;;;;0.55;0.55;;;;;;;12.28;100.00;97916.31;15275825;19;20038;-58
2022/11/09 09:56:59;;;;;;;0.63;0.60;;;;;;;12.51;100.00;97919.94;15269686;19;20010;-58
2022/11/09 10:02:31;;;;;;;1.02;0.80;;;;;;;12.59;100.00;97893.66;15268131;19;20627;-59
2022/11/09 10:08:06;;;;;;;2.15;0.68;;;;;;;12.66;100.00;97887.50;15270016;19;20014;-60
2022/11/09 10:13:53;;;;;;;0.40;0.40;;;;;;;12.69;100.00;97881.72;15273924;19;20040;-60
2022/11/09 10:19:40;;;;;;;0.82;0.70;;;;;;;12.70;100.00;97861.78;15272294;19;20370;-58
2022/11/09 10:25:11;;;;;;;0.70;0.50;;;;;;;12.76;100.00;97851.06;15269543;19;20034;-60
2022/11/09 10:31:02;;;;;;;0.40;0.30;;;;;;;12.76;100.00;97855.59;15272157;19;20022;-60
2022/11/09 10:36:34;;;;;;;0.52;0.52;;;;;;;12.81;100.00;97874.81;15265072;19;20027;-59
2022/11/09 10:41:59;;;;;;;0.98;0.57;;;;;;;12.90;100.00;97900.69;15272726;19;20014;-58
2022/11/09 10:47:49;;;;;;;0.40;0.40;;;;;;;12.86;100.00;97921.06;15263157;19;20014;-59
2022/11/09 10:53:37;;;;;;;0.35;0.35;;;;;;;12.86;100.00;97931.88;15274988;19;20007;-57
2022/11/09 10:59:45;;;;;;;0.40;0.40;;;;;;;12.91;100.00;97928.59;15270669;19;20011;-56
2022/11/09 11:05:32;;;;;;;0.50;0.50;;;;;;;13.02;100.00;97925.41;15266862;19;20015;-60
2022/11/09 11:11:31;;;;;;;0.52;0.40;;;;;;;13.17;100.00;97917.25;15281481;19;20018;-60
2022/11/09 11:17:29;;;;;;;0.77;0.50;;;;;;;13.26;100.00;97909.88;15282757;19;20019;-60
2022/11/09 11:23:14;;;;;;;1.05;0.57;;;;;;;13.35;100.00;97908.72;15283496;19;20503;-59
2022/11/09 11:29:09;;;;;;;1.27;0.50;;;;;;;13.39;100.00;97920.88;15278523;19;20078;-59
2022/11/09 11:34:52;;;;;;;0.52;0.40;;;;;;;13.45;100.00;97905.72;15282273;19;20018;-58
2022/11/09 11:40:43;;;;;;;0.80;0.40;;;;;;;13.46;100.00;97904.72;15277308;19;20006;-57
2022/11/09 11:46:42;;;;;;;0.73;0.57;;;;;;;13.52;100.00;97914.75;15278565;19;20018;-60
2022/11/09 11:52:31;;;;;;;0.55;0.40;;;;;;;13.58;100.00;97918.53;15284413;19;20010;-60
2022/11/09 11:58:30;;;;;;;0.35;0.32;;;;;;;13.67;100.00;97930.09;15279642;19;20070;-59
2022/11/09 12:04:48;;;;;;;0.85;0.32;;;;;;;13.71;100.00;97944.91;15279545;19;20014;-59
2022/11/09 12:10:44;;;;;;;0.38;0.28;;;;;;;13.88;100.00;97945.47;15277363;19;20097;-59
2022/11/09 12:16:38;;;;;;;0.50;0.43;;;;;;;13.94;100.00;97933.88;15278316;19;20086;-60
2022/11/09 12:22:31;;;;;;;0.75;0.50;;;;;;;14.09;100.00;97908.59;15278795;19;20010;-59
2022/11/09 12:28:39;;;;;;;0.40;0.40;;;;;;;14.17;100.00;97906.53;15276740;19;21202;-56
2022/11/09 12:34:28;;;;;;;0.40;0.40;;;;;;;14.23;100.00;97895.97;15281024;19;20022;-57
2022/11/09 12:40:29;;;;;;;0.85;0.40;;;;;;;14.30;100.00;97883.28;15281890;19;20018;-58
2022/11/09 12:46:15;;;;;;;0.83;0.37;;;;;;;14.45;100.00;97889.44;15269079;19;20070;-58
2022/11/09 12:51:58;;;;;;;0.20;0.20;;;;;;;14.63;100.00;97888.91;15280826;19;20524;-60
2022/11/09 12:57:48;;;;;;;0.38;0.30;;;;;;;14.64;100.00;97896.00;15275548;19;20283;-58
2022/11/09 13:03:38;;;;;;;0.38;0.38;;;;;;;14.75;100.00;97905.50;15278521;19;20515;-58
2022/11/09 13:09:26;;;;;;;0.30;0.30;;;;;;;14.77;100.00;97906.09;15277804;19;20468;-59
2022/11/09 13:15:31;;;;;;;0.52;0.40;;;;;;;14.81;100.00;97917.41;15276420;19;20387;-58
2022/11/09 13:21:37;;;;;;;0.73;0.38;;;;;;;14.84;100.00;97919.69;15277011;19;20010;-60
2022/11/09 13:27:44;;;;;;;0.40;0.40;;;;;;;14.84;100.00;97932.44;15273738;19;20440;-59
2022/11/09 13:33:30;;;;;;;0.35;0.32;;;;;;;14.64;100.00;97936.66;15272329;19;20014;-56
2022/11/09 13:39:37;;;;;;;0.70;0.30;;;;;;;14.57;100.00;97948.50;15271861;19;20082;-57
2022/11/09 13:45:42;;;;;;;0.63;0.40;;;;;;;14.43;100.00;97929.44;15274865;19;20376;-60
2022/11/09 13:51:31;;;;;;;0.50;0.35;;;;;;;14.30;100.00;97943.75;15273215;19;20078;-57
2022/11/09 13:57:18;;;;;;;0.38;0.28;;;;;;;14.17;100.00;97949.88;15275644;19;20014;-60
2022/11/09 14:03:05;;;;;;;0.43;0.32;;;;;;;14.12;100.00;97955.06;15289150;19;20030;-58
2022/11/09 14:08:52;;;;;;;3.38;0.47;;;;;;;14.10;100.00;97954.41;15326842;19;20014;-60
2022/11/09 14:14:58;;;;;;;0.80;0.30;;;;;;;14.02;100.00;97960.00;15303973;19;20475;-59
2022/11/09 14:20:44;;;;;;;0.88;0.50;;;;;;;13.89;100.00;97971.50;15266149;19;20741;-59
2022/11/09 14:26:32;;;;;;;0.68;0.43;;;;;;;13.82;100.00;97973.34;15268636;19;20010;-60
2022/11/09 14:32:26;;;;;;;0.30;0.30;;;;;;;13.77;100.00;97965.78;15267263;19;20010;-57
2022/11/09 14:38:22;;;;;;;2.50;0.40;;;;;;;13.71;100.00;97958.44;15265925;19;20030;-60
2022/11/09 14:44:12;;;;;;;0.40;0.35;;;;;;;13.69;100.00;97963.22;15272931;19;20014;-59
2022/11/09 14:49:56;;;;;;;1.23;0.50;;;;;;;13.63;100.00;97963.97;15285452;19;20067;-62
2022/11/09 14:55:41;;;;;;;2.30;0.70;;;;;;;13.54;100.00;97977.63;15278495;19;20014;-60
2022/11/09 15:01:32;;;;;;;2.55;0.70;;;;;;;13.51;100.00;97978.00;15282896;19;20011;-58
2022/11/09 15:07:19;;;;;;;2.60;0.67;;;;;;;13.49;100.00;97979.25;15276962;19;20403;-58
2022/11/09 15:13:05;;;;;;;0.80;0.70;;;;;;;13.46;100.00;97979.63;15280459;19;20014;-61
2022/11/09 15:18:51;;;;;;;1.13;0.75;;;;;;;13.35;100.00;97979.06;15276495;19;20015;-58
2022/11/09 15:24:36;;;;;;;1.85;0.80;;;;;;;13.22;100.00;97979.75;14767127;19;10000304;-59
2022/11/09 15:30:42;;;;;;;0.88;0.60;;;;;;;13.09;100.00;97984.97;15268614;19;20014;-59
2022/11/09 15:36:32;;;;;;;0.77;0.50;;;;;;;13.00;100.00;97994.19;15277444;19;20018;-59
2022/11/09 15:42:22;;;;;;;1.52;0.63;;;;;;;12.92;100.00;98006.81;15280163;19;20742;-60
2022/11/09 15:48:11;;;;;;;2.25;0.90;;;;;;;12.88;100.00;98004.66;15288541;19;20022;-57
2022/11/09 15:53:57;;;;;;;1.05;0.60;;;;;;;12.83;100.00;97998.97;15281396;19;19999;-58
2022/11/09 15:59:41;;;;;;;1.35;0.75;;;;;;;12.77;100.00;97993.28;15272014;19;20034;-57
2022/11/09 16:05:28;;;;;;;2.45;1.25;;;;;;;12.68;100.00;97998.97;15274492;19;20018;-57
2022/11/09 16:11:15;;;;;;;2.60;1.58;;;;;;;12.54;100.00;98006.88;15276745;19;20420;-60
2022/11/09 16:16:58;;;;;;;2.50;1.95;;;;;;;12.42;100.00;98006.47;15273354;19;20394;-61
2022/11/09 16:22:42;;;;;;;1.83;1.20;;;;;;;12.32;100.00;98012.13;15282948;19;20014;-57
2022/11/09 16:28:31;;;;;;;2.72;1.45;;;;;;;12.24;100.00;98020.31;15276113;19;20015;-61
2022/11/09 16:34:14;;;;;;;2.55;1.67;;;;;;;12.13;100.00;98023.44;15274423;19;20010;-58
2022/11/09 16:40:00;;;;;;;2.00;1.50;;;;;;;12.03;100.00;98026.38;15275439;19;20459;-62
2022/11/09 16:45:53;;;;;;;1.48;1.27;;;;;;;11.92;100.00;98029.47;15271552;19;20014;-55
2022/11/09 16:51:37;;;;;;;2.47;1.38;;;;;;;11.76;100.00;98046.63;15275035;19;20026;-58
2022/11/09 16:57:20;;;;;;;2.65;0.90;;;;;;;11.45;100.00;98047.47;15271814;19;20010;-60
2022/11/09 17:03:07;;;;;;;1.88;1.08;;;;;;;11.42;100.00;98062.13;15270232;19;20018;-60
2022/11/09 17:08:50;;;;;;;1.60;0.90;;;;;;;11.39;100.00;98066.03;15269047;19;20014;-59
2022/11/09 17:14:33;;;;;;;1.23;0.73;;;;;;;11.35;100.00;98078.19;15273406;19;20015;-57
2022/11/09 17:20:20;;;;;;;1.08;0.90;;;;;;;11.32;100.00;98080.38;15272684;19;20078;-61
2022/11/09 17:26:05;;;;;;;1.48;1.15;;;;;;;11.28;100.00;98081.78;15271057;19;20015;-56
2022/11/09 17:31:54;;;;;;;4.25;1.10;;;;;;;11.27;100.00;98086.31;15272256;19;20085;-61
2022/11/09 17:37:40;;;;;;;2.00;1.05;;;;;;;11.27;100.00;98090.88;15263705;19;20077;-61
2022/11/09 17:43:23;;;;;;;1.30;0.80;;;;;;;11.24;100.00;98098.28;15270382;19;20044;-58
2022/11/09 17:49:06;;;;;;;0.90;0.77;;;;;;;11.24;100.00;98100.13;15266543;19;20385;-57
2022/11/09 17:54:52;;;;;;;0.80;0.70;;;;;;;11.23;100.00;98110.09;15247588;19;20617;-61
2022/11/09 18:00:35;;;;;;;1.20;0.93;;;;;;;11.23;100.00;98109.25;15270957;19;20474;-59
2022/11/09 18:06:21;;;;;;;1.20;0.90;;;;;;;11.23;100.00;98111.97;15260840;19;20570;-58
2022/11/09 18:12:07;;;;;;;1.42;1.00;;;;;;;11.27;100.00;98125.94;15269454;19;20014;-57
2022/11/09 18:17:52;;;;;;;3.50;1.30;;;;;;;11.25;100.00;98126.94;15265629;19;20456;-60
2022/11/09 18:23:36;;;;;;;2.97;1.50;;;;;;;11.24;100.00;98132.50;15269616;19;20010;-62
2022/11/09 18:29:23;;;;;;;2.53;1.38;;;;;;;11.20;100.00;98131.16;15264122;19;20018;-61
2022/11/09 18:35:07;;;;;;;2.90;1.40;;;;;;;11.17;100.00;98140.41;15265975;19;20078;-58
2022/11/09 18:40:50;;;;;;;2.17;1.30;;;;;;;11.16;100.00;98143.31;15262578;19;20077;-59
2022/11/09 18:46:36;;;;;;;1.83;1.30;;;;;;;11.20;100.00;98153.56;15263041;19;20011;-60
2022/11/09 18:52:19;;;;;;;1.60;1.13;;;;;;;11.20;100.00;98158.13;15266958;19;20015;-57
2022/11/09 18:58:02;;;;;;;2.17;1.20;;;;;;;11.25;100.00;98158.44;15262711;19;20018;-60
2022/11/09 19:03:49;;;;;;;1.90;1.05;;;;;;;11.28;100.00;98171.59;15265473;19;20014;-60
2022/11/09 19:09:34;;;;;;;1.33;0.90;;;;;;;11.32;100.00;98166.69;15265336;19;20014;-59
2022/11/09 19:15:17;;;;;;;;;;;;;;;11.32;100.00;98151.38;15260842;19;20101;-59
2022/11/09 19:21:04;;;;;;;2.38;1.10;;;;;;;11.32;100.00;98174.78;15266620;19;19919;-60
2022/11/09 19:26:54;;;;;;;1.88;1.20;;;;;;;11.34;100.00;98168.22;15262259;19;20093;-56
2022/11/09 19:32:38;;;;;;;2.30;1.30;;;;;;;11.34;100.00;98172.75;15278445;19;20014;-59
2022/11/09 19:38:23;;;;;;;1.55;1.00;;;;;;;11.36;100.00;98174.25;15273384;19;20018;-59
2022/11/09 19:44:06;;;;;;;1.17;0.80;;;;;;;11.43;100.00;98185.19;15271952;19;20078;-58
2022/11/09 19:49:50;;;;;;;1.73;0.82;;;;;;;11.39;100.00;98189.28;15279109;19;20026;-59
2022/11/09 19:55:36;;;;;;;1.70;1.00;;;;;;;11.30;100.00;98193.84;15277963;19;20054;-60
2022/11/09 20:01:20;;;;;;;1.83;1.10;;;;;;;11.25;100.00;98207.84;15277740;19;20006;-60
2022/11/09 20:07:03;;;;;;;1.83;1.23;;;;;;;11.28;100.00;98211.22;15274149;19;20014;-57
2022/11/09 20:12:54;;;;;;;2.08;1.20;;;;;;;11.28;100.00;98219.31;15276664;19;20042;-58
2022/11/09 20:18:38;;;;;;;2.77;1.00;;;;;;;11.27;100.00;98229.22;15269269;19;20026;-59
2022/11/09 20:24:21;;;;;;;2.70;1.10;;;;;;;11.28;100.00;98230.09;15276841;19;20018;-59
2022/11/09 20:30:15;;;;;;;2.30;1.00;;;;;;;11.29;100.00;98237.16;15274889;19;20018;-59
2022/11/09 20:35:59;;;;;;;2.03;0.90;;;;;;;11.26;100.00;98232.94;15277330;19;20070;-60
2022/11/09 20:41:42;;;;;;;2.17;1.20;;;;;;;11.26;100.00;98238.34;15277642;19;20010;-60
2022/11/09 20:47:29;;;;;;;1.27;1.00;;;;;;;11.30;100.00;98245.09;15272080;19;20471;-60
2022/11/09 20:53:33;;;;;;;2.38;1.10;;;;;;;11.34;100.00;98254.53;15275993;19;20450;-60
2022/11/09 20:59:16;;;;;;;1.63;1.00;;;;;;;11.38;100.00;98253.16;15274277;19;20010;-59
2022/11/09 21:05:02;;;;;;;1.63;0.70;;;;;;;11.38;100.00;98253.16;15274246;19;20018;-60
2022/11/09 21:10:45;;;;;;;1.55;0.80;;;;;;;11.34;100.00;98257.22;15274825;19;20074;-61
2022/11/09 21:16:30;;;;;;;1.10;0.65;;;;;;;11.34;100.00;98273.41;15273694;19;20395;-60
2022/11/09 21:22:17;;;;;;;1.52;0.80;;;;;;;11.32;100.00;98280.81;15271604;19;20014;-59
2022/11/09 21:34:04;;;;;;;1.92;0.98;;;;;;;11.34;100.00;98284.19;15272442;19;20022;-60
2022/11/09 21:39:51;;;;;;;1.40;0.80;;;;;;;11.33;100.00;98293.28;15274264;19;20257;-59
2022/11/09 21:45:34;;;;;;;2.78;0.90;;;;;;;11.32;100.00;98297.00;15271621;19;20014;-60
2022/11/09 21:51:17;;;;;;;2.58;1.00;;;;;;;11.31;100.00;98306.09;15271711;19;20011;-59
2022/11/09 21:57:04;;;;;;;1.75;0.82;;;;;;;11.29;100.00;98308.13;15267598;19;20018;-59
2022/11/09 22:02:47;;;;;;;2.55;0.80;;;;;;;11.24;100.00;98315.84;15272034;19;20014;-59
2022/11/09 22:08:30;;;;;;;2.03;0.80;;;;;;;11.19;100.00;98323.63;15266910;19;20046;-59
2022/11/09 22:26:12;;;;;;;1.60;0.80;;;;;;;11.10;100.00;98349.72;15262614;19;20383;-60
2022/11/09 22:32:04;;;;;;;2.50;0.85;;;;;;;11.09;100.00;98346.22;15268975;19;20566;-61
2022/11/09 22:37:49;;;;;;;2.45;0.77;;;;;;;11.12;100.00;98357.63;15267156;19;20030;-59
2022/11/09 22:43:33;;;;;;;2.33;0.60;;;;;;;11.19;100.00;98372.16;15271324;19;20026;-59
2022/11/09 22:49:20;;;;;;;1.67;0.68;;;;;;;11.19;100.00;98378.38;15266652;19;20040;-59
2022/11/09 22:55:03;;;;;;;1.80;0.80;;;;;;;11.22;100.00;98378.06;15267800;19;20014;-59
2022/11/09 23:00:46;;;;;;;2.08;0.70;;;;;;;11.22;100.00;98383.44;15263164;19;20019;-59
2022/11/09 23:06:33;;;;;;;2.78;1.00;;;;;;;11.18;100.00;98394.75;15273990;19;20077;-59
2022/11/09 23:12:17;;;;;;;2.80;0.95;;;;;;;11.09;100.00;98392.03;15284993;19;20291;-58
2022/11/09 23:24:02;;;;;;;2.58;0.90;;;;;;;11.02;100.00;98422.50;15285571;19;20419;-57
2022/11/09 23:29:45;;;;;;;2.25;0.70;;;;;;;10.98;100.00;98427.41;15277445;19;20348;-57
2022/11/09 23:35:28;;;;;;;2.88;1.00;;;;;;;10.93;100.00;98425.19;15280979;19;20527;-56
2022/11/09 23:41:15;;;;;;;1.70;0.77;;;;;;;10.88;100.00;98437.44;15286346;19;20010;-59
2022/11/09 23:46:58;;;;;;;3.17;1.00;;;;;;;10.78;100.00;98441.13;15277444;19;20014;-59
2022/11/09 23:52:42;;;;;;;2.83;0.80;;;;;;;10.75;100.00;98446.84;15281679;19;20090;-60
2022/11/09 23:58:28;;;;;;;2.28;0.80;;;;;;;10.68;100.00;98453.03;15277811;19;20042;-61
